sensor_id;sensor_type;location;lat;lon;timestamp;pressure;altitude;pressure_sealevel;temperature;humidity
39265;BME280;42646;51.910;7.724;2023-03-01T00:01:40;102467.59;;;-1.80;90.20
39265;BME280;42646;51.910;7.724;2023-03-01T00:04:10;102466.72;;;-1.79;90.16
39265;BME280;42646;51.910;7.724;2023-03-01T00:06:37;102465.84;;;-1.78;89.83
39265;BME280;42646;51.910;7.724;2023-03-01T00:09:05;102461.50;;;-1.79;90.35
39265;BME280;42646;51.910;7.724;2023-03-01T00:11:34;102472.81;;;-1.80;90.46
39265;BME280;42646;51.910;7.724;2023-03-01T00:14:02;102465.00;;;-1.81;90.67
39265;BME280;42646;51.910;7.724;2023-03-01T00:16:37;102462.41;;;-1.83;90.32
39265;BME280;42646;51.910;7.724;2023-03-01T00:19:06;102467.63;;;-1.84;90.23
39265;BME280;42646;51.910;7.724;2023-03-01T00:21:36;102463.28;;;-1.85;90.18
39265;BME280;42646;51.910;7.724;2023-03-01T00:24:04;102466.78;;;-1.86;90.33
39265;BME280;42646;51.910;7.724;2023-03-01T00:26:31;102463.34;;;-1.89;90.31
39265;BME280;42646;51.910;7.724;2023-03-01T00:28:59;102456.41;;;-1.90;90.49
39265;BME280;42646;51.910;7.724;2023-03-01T00:31:30;102465.97;;;-1.92;90.27
39265;BME280;42646;51.910;7.724;2023-03-01T00:34:00;102453.81;;;-1.93;90.42
39265;BME280;42646;51.910;7.724;2023-03-01T00:36:29;102453.81;;;-1.94;90.07
39265;BME280;42646;51.910;7.724;2023-03-01T00:38:59;102456.47;;;-1.96;90.38
39265;BME280;42646;51.910;7.724;2023-03-01T00:41:27;102453.84;;;-1.97;90.25
39265;BME280;42646;51.910;7.724;2023-03-01T00:43:55;102450.41;;;-1.99;90.36
39265;BME280;42646;51.910;7.724;2023-03-01T00:46:25;102449.53;;;-2.00;90.29
39265;BME280;42646;51.910;7.724;2023-03-01T00:48:55;102448.66;;;-2.02;90.27
39265;BME280;42646;51.910;7.724;2023-03-01T00:51:25;102450.44;;;-2.05;90.69
39265;BME280;42646;51.910;7.724;2023-03-01T00:53:59;102444.41;;;-2.07;90.53
39265;BME280;42646;51.910;7.724;2023-03-01T00:56:29;102440.06;;;-2.10;90.85
39265;BME280;42646;51.910;7.724;2023-03-01T00:58:58;102439.19;;;-2.10;90.83
39265;BME280;42646;51.910;7.724;2023-03-01T01:01:28;102445.31;;;-2.13;91.26
39265;BME280;42646;51.910;7.724;2023-03-01T01:03:58;102446.16;;;-2.14;91.32
39265;BME280;42646;51.910;7.724;2023-03-01T01:06:27;102446.16;;;-2.14;91.13
39265;BME280;42646;51.910;7.724;2023-03-01T01:08:56;102448.78;;;-2.16;91.02
39265;BME280;42646;51.910;7.724;2023-03-01T01:11:28;102447.94;;;-2.18;90.97
39265;BME280;42646;51.910;7.724;2023-03-01T01:13:56;102458.41;;;-2.19;91.19
39265;BME280;42646;51.910;7.724;2023-03-01T01:16:26;102449.72;;;-2.21;91.26
39265;BME280;42646;51.910;7.724;2023-03-01T01:18:55;102450.59;;;-2.22;91.17
39265;BME280;42646;51.910;7.724;2023-03-01T01:21:24;102448.88;;;-2.25;91.33
39265;BME280;42646;51.910;7.724;2023-03-01T01:23:54;102441.91;;;-2.26;91.42
39265;BME280;42646;51.910;7.724;2023-03-01T01:26:26;102431.50;;;-2.27;91.12
39265;BME280;42646;51.910;7.724;2023-03-01T01:28:54;102435.03;;;-2.30;91.58
39265;BME280;42646;51.910;7.724;2023-03-01T01:31:24;102431.53;;;-2.32;91.55
39265;BME280;42646;51.910;7.724;2023-03-01T01:33:52;102430.69;;;-2.34;91.29
39265;BME280;42646;51.910;7.724;2023-03-01T01:36:20;102424.66;;;-2.36;91.29
39265;BME280;42646;51.910;7.724;2023-03-01T01:38:48;102425.53;;;-2.37;91.36
39265;BME280;42646;51.910;7.724;2023-03-01T01:41:18;102433.34;;;-2.40;91.38
39265;BME280;42646;51.910;7.724;2023-03-01T01:43:49;102429.06;;;-2.43;91.24
39265;BME280;42646;51.910;7.724;2023-03-01T01:46:25;102433.41;;;-2.43;91.50
39265;BME280;42646;51.910;7.724;2023-03-01T01:48:59;102429.03;;;-2.44;91.32
39265;BME280;42646;51.910;7.724;2023-03-01T01:51:31;102425.56;;;-2.45;91.83
39265;BME280;42646;51.910;7.724;2023-03-01T01:54:08;102411.69;;;-2.47;91.72
39265;BME280;42646;51.910;7.724;2023-03-01T01:56:39;102404.75;;;-2.49;91.74
39265;BME280;42646;51.910;7.724;2023-03-01T01:59:12;102403.03;;;-2.49;91.36
39265;BME280;42646;51.910;7.724;2023-03-01T02:01:40;102409.09;;;-2.50;91.69
39265;BME280;42646;51.910;7.724;2023-03-01T02:04:07;102406.53;;;-2.53;91.39
39265;BME280;42646;51.910;7.724;2023-03-01T02:06:38;102397.84;;;-2.53;91.44
39265;BME280;42646;51.910;7.724;2023-03-01T02:09:13;102397.84;;;-2.53;91.58
39265;BME280;42646;51.910;7.724;2023-03-01T02:11:43;102394.38;;;-2.55;91.50
39265;BME280;42646;51.910;7.724;2023-03-01T02:14:12;102399.63;;;-2.57;91.84
39265;BME280;42646;51.910;7.724;2023-03-01T02:16:40;102388.31;;;-2.57;91.69
39265;BME280;42646;51.910;7.724;2023-03-01T02:19:16;102393.56;;;-2.59;92.09
39265;BME280;42646;51.910;7.724;2023-03-01T02:21:54;102391.84;;;-2.60;91.88
39265;BME280;42646;51.910;7.724;2023-03-01T02:24:32;102387.50;;;-2.62;91.70
39265;BME280;42646;51.910;7.724;2023-03-01T02:27:03;102394.47;;;-2.64;91.69
39265;BME280;42646;51.910;7.724;2023-03-01T02:29:34;102387.53;;;-2.65;91.74
39265;BME280;42646;51.910;7.724;2023-03-01T02:32:04;102384.91;;;-2.67;91.84
39265;BME280;42646;51.910;7.724;2023-03-01T02:34:33;102390.13;;;-2.67;91.85
39265;BME280;42646;51.910;7.724;2023-03-01T02:37:04;102386.69;;;-2.69;91.89
39265;BME280;42646;51.910;7.724;2023-03-01T02:39:35;102383.25;;;-2.71;92.10
39265;BME280;42646;51.910;7.724;2023-03-01T02:42:11;102383.25;;;-2.73;91.72
39265;BME280;42646;51.910;7.724;2023-03-01T02:44:44;102378.06;;;-2.76;91.93
39265;BME280;42646;51.910;7.724;2023-03-01T02:47:11;102378.94;;;-2.77;91.76
39265;BME280;42646;51.910;7.724;2023-03-01T02:49:40;102396.31;;;-2.77;92.01
39265;BME280;42646;51.910;7.724;2023-03-01T02:52:17;102384.16;;;-2.80;91.76
39265;BME280;42646;51.910;7.724;2023-03-01T02:54:51;102390.25;;;-2.81;91.85
39265;BME280;42646;51.910;7.724;2023-03-01T02:57:22;102391.13;;;-2.82;91.77
39265;BME280;42646;51.910;7.724;2023-03-01T02:59:53;102392.88;;;-2.84;91.76
39265;BME280;42646;51.910;7.724;2023-03-01T03:02:26;102396.34;;;-2.85;91.79
39265;BME280;42646;51.910;7.724;2023-03-01T03:05:10;102385.94;;;-2.88;92.32
39265;BME280;42646;51.910;7.724;2023-03-01T03:07:40;102384.22;;;-2.89;92.07
39265;BME280;42646;51.910;7.724;2023-03-01T03:10:11;102379.91;;;-2.93;92.37
39265;BME280;42646;51.910;7.724;2023-03-01T03:12:41;102382.53;;;-2.94;92.42
39265;BME280;42646;51.910;7.724;2023-03-01T03:15:10;102366.91;;;-2.98;92.76
39265;BME280;42646;51.910;7.724;2023-03-01T03:17:41;102372.13;;;-2.96;92.77
39265;BME280;42646;51.910;7.724;2023-03-01T03:20:13;102372.13;;;-2.98;92.75
39265;BME280;42646;51.910;7.724;2023-03-01T03:22:46;102379.06;;;-2.98;92.74
39265;BME280;42646;51.910;7.724;2023-03-01T03:25:17;102380.81;;;-2.99;92.86
39265;BME280;42646;51.910;7.724;2023-03-01T03:27:47;102371.28;;;-3.00;92.50
39265;BME280;42646;51.910;7.724;2023-03-01T03:30:20;102376.50;;;-3.01;92.69
39265;BME280;42646;51.910;7.724;2023-03-01T03:32:48;102374.78;;;-3.02;92.59
39265;BME280;42646;51.910;7.724;2023-03-01T03:35:19;102356.56;;;-3.05;92.57
39265;BME280;42646;51.910;7.724;2023-03-01T03:37:48;102357.44;;;-3.06;92.46
39265;BME280;42646;51.910;7.724;2023-03-01T03:40:34;102363.53;;;-3.10;92.49
39265;BME280;42646;51.910;7.724;2023-03-01T03:43:02;102359.19;;;-3.10;92.38
39265;BME280;42646;51.910;7.724;2023-03-01T03:45:31;102354.00;;;-3.11;92.01
39265;BME280;42646;51.910;7.724;2023-03-01T03:48:00;102353.16;;;-3.13;91.93
39265;BME280;42646;51.910;7.724;2023-03-01T03:50:28;102348.78;;;-3.14;92.17
39265;BME280;42646;51.910;7.724;2023-03-01T03:52:55;102354.91;;;-3.17;92.12
39265;BME280;42646;51.910;7.724;2023-03-01T03:55:23;102346.22;;;-3.17;92.21
39265;BME280;42646;51.910;7.724;2023-03-01T03:57:58;102350.59;;;-3.19;92.13
39265;BME280;42646;51.910;7.724;2023-03-01T04:00:28;102351.44;;;-3.20;91.92
39265;BME280;42646;51.910;7.724;2023-03-01T04:02:58;102354.91;;;-3.22;92.14
39265;BME280;42646;51.910;7.724;2023-03-01T04:05:27;102352.31;;;-3.23;92.10
39265;BME280;42646;51.910;7.724;2023-03-01T04:07:55;102356.69;;;-3.25;92.23
39265;BME280;42646;51.910;7.724;2023-03-01T04:10:35;102344.56;;;-3.26;92.44
39265;BME280;42646;51.910;7.724;2023-03-01T04:13:05;102348.88;;;-3.28;92.88
39265;BME280;42646;51.910;7.724;2023-03-01T04:15:33;102343.69;;;-3.28;92.78
39265;BME280;42646;51.910;7.724;2023-03-01T04:18:03;102341.09;;;-3.30;92.52
39265;BME280;42646;51.910;7.724;2023-03-01T04:20:34;102338.50;;;-3.31;92.70
39265;BME280;42646;51.910;7.724;2023-03-01T04:23:05;102341.97;;;-3.31;92.45
39265;BME280;42646;51.910;7.724;2023-03-01T04:25:44;102331.56;;;-3.34;92.34
39265;BME280;42646;51.910;7.724;2023-03-01T04:28:13;102326.38;;;-3.35;92.33
39265;BME280;42646;51.910;7.724;2023-03-01T04:30:41;102324.66;;;-3.36;92.29
39265;BME280;42646;51.910;7.724;2023-03-01T04:33:11;102322.94;;;-3.37;92.18
39265;BME280;42646;51.910;7.724;2023-03-01T04:35:39;102329.88;;;-3.38;92.44
39265;BME280;42646;51.910;7.724;2023-03-01T04:38:07;102325.53;;;-3.39;92.31
39265;BME280;42646;51.910;7.724;2023-03-01T04:40:35;102329.88;;;-3.41;92.26
39265;BME280;42646;51.910;7.724;2023-03-01T04:43:04;102317.75;;;-3.42;92.34
39265;BME280;42646;51.910;7.724;2023-03-01T04:45:32;102322.09;;;-3.42;92.19
39265;BME280;42646;51.910;7.724;2023-03-01T04:48:02;102318.63;;;-3.44;92.47
39265;BME280;42646;51.910;7.724;2023-03-01T04:50:34;102323.81;;;-3.46;92.52
39265;BME280;42646;51.910;7.724;2023-03-01T04:53:02;102334.25;;;-3.47;92.69
39265;BME280;42646;51.910;7.724;2023-03-01T04:55:30;102330.81;;;-3.50;92.43
39265;BME280;42646;51.910;7.724;2023-03-01T04:57:58;102329.06;;;-3.51;92.88
39265;BME280;42646;51.910;7.724;2023-03-01T05:00:27;102327.34;;;-3.53;93.02
39265;BME280;42646;51.910;7.724;2023-03-01T05:02:57;102329.09;;;-3.54;93.24
39265;BME280;42646;51.910;7.724;2023-03-01T05:05:28;102331.69;;;-3.55;93.15
39265;BME280;42646;51.910;7.724;2023-03-01T05:07:59;102323.88;;;-3.57;93.36
39265;BME280;42646;51.910;7.724;2023-03-01T05:10:29;102328.22;;;-3.57;93.69
39265;BME280;42646;51.910;7.724;2023-03-01T05:12:59;102324.78;;;-3.59;93.71
39265;BME280;42646;51.910;7.724;2023-03-01T05:15:29;102323.91;;;-3.60;93.73
39265;BME280;42646;51.910;7.724;2023-03-01T05:17:59;102323.94;;;-3.61;93.77
39265;BME280;42646;51.910;7.724;2023-03-01T05:20:29;102328.25;;;-3.65;93.61
39265;BME280;42646;51.910;7.724;2023-03-01T05:23:00;102330.03;;;-3.67;93.49
39265;BME280;42646;51.910;7.724;2023-03-01T05:25:33;102324.81;;;-3.70;93.20
39265;BME280;42646;51.910;7.724;2023-03-01T05:28:01;102326.56;;;-3.70;93.38
39265;BME280;42646;51.910;7.724;2023-03-01T05:30:31;102334.38;;;-3.72;93.54
39265;BME280;42646;51.910;7.724;2023-03-01T05:33:24;102332.66;;;-3.78;93.37
39265;BME280;42646;51.910;7.724;2023-03-01T05:35:53;102335.28;;;-3.79;93.09
39265;BME280;42646;51.910;7.724;2023-03-01T05:38:23;102324.88;;;-3.82;92.76
39265;BME280;42646;51.910;7.724;2023-03-01T05:40:50;102337.88;;;-3.84;92.94
39265;BME280;42646;51.910;7.724;2023-03-01T05:43:20;102327.47;;;-3.87;92.57
39265;BME280;42646;51.910;7.724;2023-03-01T05:45:48;102334.44;;;-3.90;92.43
39265;BME280;42646;51.910;7.724;2023-03-01T05:48:16;102330.97;;;-3.92;92.52
39265;BME280;42646;51.910;7.724;2023-03-01T05:50:46;102331.00;;;-3.95;92.53
39265;BME280;42646;51.910;7.724;2023-03-01T05:53:15;102319.72;;;-3.97;92.37
39265;BME280;42646;51.910;7.724;2023-03-01T05:55:44;102321.47;;;-4.01;92.13
39265;BME280;42646;51.910;7.724;2023-03-01T05:58:16;102324.09;;;-4.03;91.96
39265;BME280;42646;51.910;7.724;2023-03-01T06:00:46;102324.06;;;-4.06;91.83
39265;BME280;42646;51.910;7.724;2023-03-01T06:03:15;102324.97;;;-4.08;91.77
39265;BME280;42646;51.910;7.724;2023-03-01T06:05:44;102321.50;;;-4.10;91.64
39265;BME280;42646;51.910;7.724;2023-03-01T06:08:13;102316.31;;;-4.12;91.92
39265;BME280;42646;51.910;7.724;2023-03-01T06:10:41;102313.72;;;-4.15;91.77
39265;BME280;42646;51.910;7.724;2023-03-01T06:13:11;102311.97;;;-4.16;91.86
39265;BME280;42646;51.910;7.724;2023-03-01T06:15:38;102315.47;;;-4.20;91.89
39265;BME280;42646;51.910;7.724;2023-03-01T06:18:06;102311.13;;;-4.22;91.67
39265;BME280;42646;51.910;7.724;2023-03-01T06:20:33;102314.59;;;-4.23;91.96
39265;BME280;42646;51.910;7.724;2023-03-01T06:23:01;102318.94;;;-4.25;91.64
39265;BME280;42646;51.910;7.724;2023-03-01T06:25:29;102314.59;;;-4.28;91.61
39265;BME280;42646;51.910;7.724;2023-03-01T06:28:00;102318.09;;;-4.31;91.75
39265;BME280;42646;51.910;7.724;2023-03-01T06:30:30;102319.81;;;-4.31;91.76
39265;BME280;42646;51.910;7.724;2023-03-01T06:32:58;102324.13;;;-4.33;92.03
39265;BME280;42646;51.910;7.724;2023-03-01T06:35:29;102320.66;;;-4.34;92.11
39265;BME280;42646;51.910;7.724;2023-03-01T06:37:59;102326.75;;;-4.35;92.33
39265;BME280;42646;51.910;7.724;2023-03-01T06:40:27;102320.69;;;-4.35;92.61
39265;BME280;42646;51.910;7.724;2023-03-01T06:42:58;102324.16;;;-4.35;92.52
39265;BME280;42646;51.910;7.724;2023-03-01T06:45:26;102330.19;;;-4.34;93.02
39265;BME280;42646;51.910;7.724;2023-03-01T06:48:02;102328.47;;;-4.34;93.64
39265;BME280;42646;51.910;7.724;2023-03-01T06:50:58;102319.81;;;-4.34;93.87
39265;BME280;42646;51.910;7.724;2023-03-01T06:53:27;102322.44;;;-4.33;94.10
39265;BME280;42646;51.910;7.724;2023-03-01T06:55:55;102316.34;;;-4.35;94.66
39265;BME280;42646;51.910;7.724;2023-03-01T06:58:47;102327.59;;;-4.34;94.43
39265;BME280;42646;51.910;7.724;2023-03-01T07:01:14;102317.22;;;-4.34;94.54
39265;BME280;42646;51.910;7.724;2023-03-01T07:03:45;102318.97;;;-4.32;95.07
39265;BME280;42646;51.910;7.724;2023-03-01T07:06:12;102314.63;;;-4.31;95.13
39265;BME280;42646;51.910;7.724;2023-03-01T07:08:42;102309.41;;;-4.28;95.17
39265;BME280;42646;51.910;7.724;2023-03-01T07:11:10;102312.00;;;-4.23;95.67
39265;BME280;42646;51.910;7.724;2023-03-01T07:13:37;102308.53;;;-4.19;95.76
39265;BME280;42646;51.910;7.724;2023-03-01T07:16:07;102311.13;;;-4.15;96.21
39265;BME280;42646;51.910;7.724;2023-03-01T07:18:35;102314.56;;;-4.10;96.32
39265;BME280;42646;51.910;7.724;2023-03-01T07:21:09;102310.22;;;-4.05;96.57
39265;BME280;42646;51.910;7.724;2023-03-01T07:23:38;102312.78;;;-3.98;97.17
39265;BME280;42646;51.910;7.724;2023-03-01T07:26:06;102308.44;;;-3.92;97.41
39265;BME280;42646;51.910;7.724;2023-03-01T07:28:34;102297.16;;;-3.83;97.77
39265;BME280;42646;51.910;7.724;2023-03-01T07:31:06;102303.16;;;-3.70;98.01
39265;BME280;42646;51.910;7.724;2023-03-01T07:33:34;102306.56;;;-3.55;98.92
39265;BME280;42646;51.910;7.724;2023-03-01T07:36:03;102303.84;;;-3.36;100.00
39265;BME280;42646;51.910;7.724;2023-03-01T07:38:33;102300.22;;;-3.12;100.00
39265;BME280;42646;51.910;7.724;2023-03-01T07:41:03;102295.66;;;-2.86;100.00
39265;BME280;42646;51.910;7.724;2023-03-01T07:43:31;102298.97;;;-2.65;100.00
39265;BME280;42646;51.910;7.724;2023-03-01T07:45:59;102295.31;;;-2.49;100.00
39265;BME280;42646;51.910;7.724;2023-03-01T07:48:28;102291.66;;;-2.31;100.00
39265;BME280;42646;51.910;7.724;2023-03-01T07:50:57;102302.69;;;-2.05;100.00
39265;BME280;42646;51.910;7.724;2023-03-01T07:53:25;102298.13;;;-1.86;100.00
39265;BME280;42646;51.910;7.724;2023-03-01T07:56:02;102296.13;;;-1.67;100.00
39265;BME280;42646;51.910;7.724;2023-03-01T07:58:30;102298.50;;;-1.50;99.50
39265;BME280;42646;51.910;7.724;2023-03-01T08:01:01;102293.09;;;-1.35;99.18
39265;BME280;42646;51.910;7.724;2023-03-01T08:03:29;102288.50;;;-1.19;98.33
39265;BME280;42646;51.910;7.724;2023-03-01T08:06:01;102287.38;;;-1.03;97.33
39265;BME280;42646;51.910;7.724;2023-03-01T08:08:29;102290.66;;;-0.89;96.22
39265;BME280;42646;51.910;7.724;2023-03-01T08:10:57;102286.06;;;-0.76;95.57
39265;BME280;42646;51.910;7.724;2023-03-01T08:13:27;102290.16;;;-0.61;94.67
39265;BME280;42646;51.910;7.724;2023-03-01T08:16:01;102293.41;;;-0.48;93.38
39265;BME280;42646;51.910;7.724;2023-03-01T08:18:30;102291.53;;;-0.40;92.73
39265;BME280;42646;51.910;7.724;2023-03-01T08:21:01;102295.72;;;-0.32;92.24
39265;BME280;42646;51.910;7.724;2023-03-01T08:23:29;102289.47;;;-0.23;91.21
39265;BME280;42646;51.910;7.724;2023-03-01T08:26:04;102290.13;;;-0.12;90.52
39265;BME280;42646;51.910;7.724;2023-03-01T08:28:33;102287.19;;;0.04;89.87
39265;BME280;42646;51.910;7.724;2023-03-01T08:31:03;102281.78;;;0.13;89.87
39265;BME280;42646;51.910;7.724;2023-03-01T08:33:31;102284.03;;;0.30;89.53
39265;BME280;42646;51.910;7.724;2023-03-01T08:36:03;102280.03;;;0.53;89.00
39265;BME280;42646;51.910;7.724;2023-03-01T08:38:33;102274.44;;;0.69;88.39
39265;BME280;42646;51.910;7.724;2023-03-01T08:41:00;102265.22;;;0.90;87.75
39265;BME280;42646;51.910;7.724;2023-03-01T08:43:28;102267.31;;;1.11;86.53
39265;BME280;42646;51.910;7.724;2023-03-01T08:45:57;102264.38;;;1.23;85.32
39265;BME280;42646;51.910;7.724;2023-03-01T08:48:27;102265.88;;;1.33;85.00
39265;BME280;42646;51.910;7.724;2023-03-01T08:50:56;102269.16;;;1.42;84.26
39265;BME280;42646;51.910;7.724;2023-03-01T08:53:24;102268.19;;;1.46;83.09
39265;BME280;42646;51.910;7.724;2023-03-01T08:55:52;102276.84;;;1.48;82.36
39265;BME280;42646;51.910;7.724;2023-03-01T08:58:19;102278.44;;;1.53;80.95
39265;BME280;42646;51.910;7.724;2023-03-01T09:00:47;102269.72;;;1.53;80.25
39265;BME280;42646;51.910;7.724;2023-03-01T09:03:18;102261.53;;;1.65;80.28
39265;BME280;42646;51.910;7.724;2023-03-01T09:05:45;102262.59;;;1.91;79.10
39265;BME280;42646;51.910;7.724;2023-03-01T09:08:13;102265.50;;;2.11;76.70
39265;BME280;42646;51.910;7.724;2023-03-01T09:10:41;102262.13;;;2.35;74.73
39265;BME280;42646;51.910;7.724;2023-03-01T09:13:09;102262.59;;;2.50;72.86
39265;BME280;42646;51.910;7.724;2023-03-01T09:15:38;102256.28;;;2.55;72.81
39265;BME280;42646;51.910;7.724;2023-03-01T09:18:06;102252.75;;;2.56;73.28
39265;BME280;42646;51.910;7.724;2023-03-01T09:20:37;102256.66;;;2.71;73.23
39265;BME280;42646;51.910;7.724;2023-03-01T09:23:04;102253.56;;;2.86;72.20
39265;BME280;42646;51.910;7.724;2023-03-01T09:25:33;102248.81;;;2.98;72.17
39265;BME280;42646;51.910;7.724;2023-03-01T09:28:02;102249.19;;;3.12;72.57
39265;BME280;42646;51.910;7.724;2023-03-01T09:30:30;102250.69;;;3.19;71.38
39265;BME280;42646;51.910;7.724;2023-03-01T09:32:57;102251.41;;;3.24;68.70
39265;BME280;42646;51.910;7.724;2023-03-01T09:35:25;102239.97;;;3.25;67.20
39265;BME280;42646;51.910;7.724;2023-03-01T09:37:55;102241.72;;;3.26;68.22
39265;BME280;42646;51.910;7.724;2023-03-01T09:40:24;102241.28;;;3.38;68.99
39265;BME280;42646;51.910;7.724;2023-03-01T09:42:58;102240.38;;;3.39;64.67
39265;BME280;42646;51.910;7.724;2023-03-01T09:45:29;102232.47;;;3.39;64.42
39265;BME280;42646;51.910;7.724;2023-03-01T09:48:04;102236.66;;;3.45;63.10
39265;BME280;42646;51.910;7.724;2023-03-01T09:50:34;102238.31;;;3.47;63.11
39265;BME280;42646;51.910;7.724;2023-03-01T09:53:06;102238.31;;;3.47;64.58
39265;BME280;42646;51.910;7.724;2023-03-01T09:55:39;102229.13;;;3.59;64.29
39265;BME280;42646;51.910;7.724;2023-03-01T09:58:26;102226.06;;;3.71;62.84
39265;BME280;42646;51.910;7.724;2023-03-01T10:00:56;102225.91;;;3.76;62.78
39265;BME280;42646;51.910;7.724;2023-03-01T10:03:33;102225.50;;;3.87;61.61
39265;BME280;42646;51.910;7.724;2023-03-01T10:06:08;102224.47;;;3.91;60.48
39265;BME280;42646;51.910;7.724;2023-03-01T10:09:02;102223.59;;;3.90;61.14
39265;BME280;42646;51.910;7.724;2023-03-01T10:11:37;102224.06;;;4.01;60.41
39265;BME280;42646;51.910;7.724;2023-03-01T10:14:15;102222.06;;;4.08;60.76
39265;BME280;42646;51.910;7.724;2023-03-01T10:16:51;102206.00;;;4.16;60.36
39265;BME280;42646;51.910;7.724;2023-03-01T10:19:24;102210.44;;;4.14;59.93
39265;BME280;42646;51.910;7.724;2023-03-01T10:21:52;102207.41;;;4.24;59.03
39265;BME280;42646;51.910;7.724;2023-03-01T10:24:22;102206.53;;;4.24;59.85
39265;BME280;42646;51.910;7.724;2023-03-01T10:26:54;102208.88;;;4.32;59.93
39265;BME280;42646;51.910;7.724;2023-03-01T10:29:26;102205.03;;;4.40;58.77
39265;BME280;42646;51.910;7.724;2023-03-01T10:31:56;102207.53;;;4.43;58.23
39265;BME280;42646;51.910;7.724;2023-03-01T10:34:28;102200.06;;;4.54;58.28
39265;BME280;42646;51.910;7.724;2023-03-01T10:36:57;102201.84;;;4.54;57.35
39265;BME280;42646;51.910;7.724;2023-03-01T10:39:27;102209.75;;;4.54;57.25
39265;BME280;42646;51.910;7.724;2023-03-01T10:41:57;102204.66;;;4.49;56.31
39265;BME280;42646;51.910;7.724;2023-03-01T10:44:42;102198.66;;;4.46;58.16
39265;BME280;42646;51.910;7.724;2023-03-01T10:47:17;102199.34;;;4.51;58.69
39265;BME280;42646;51.910;7.724;2023-03-01T10:49:53;102203.25;;;4.63;59.04
39265;BME280;42646;51.910;7.724;2023-03-01T10:52:26;102184.81;;;4.63;58.47
39265;BME280;42646;51.910;7.724;2023-03-01T10:54:57;102185.34;;;4.71;58.93
39265;BME280;42646;51.910;7.724;2023-03-01T10:57:33;102183.38;;;4.76;58.45
39265;BME280;42646;51.910;7.724;2023-03-01T11:00:22;102179.03;;;4.75;57.40
39265;BME280;42646;51.910;7.724;2023-03-01T11:03:10;102183.50;;;4.73;57.58
39265;BME280;42646;51.910;7.724;2023-03-01T11:06:00;102177.91;;;4.80;57.31
39265;BME280;42646;51.910;7.724;2023-03-01T11:08:46;102182.13;;;4.85;56.74
39265;BME280;42646;51.910;7.724;2023-03-01T11:11:30;102176.06;;;4.82;56.83
39265;BME280;42646;51.910;7.724;2023-03-01T11:14:03;102178.44;;;4.89;56.31
39265;BME280;42646;51.910;7.724;2023-03-01T11:16:59;102170.66;;;4.86;56.34
39265;BME280;42646;51.910;7.724;2023-03-01T11:19:28;102167.97;;;4.87;56.44
39265;BME280;42646;51.910;7.724;2023-03-01T11:22:01;102160.19;;;4.84;56.13
39265;BME280;42646;51.910;7.724;2023-03-01T11:24:37;102162.97;;;4.81;56.14
39265;BME280;42646;51.910;7.724;2023-03-01T11:27:16;102153.38;;;4.78;55.73
39265;BME280;42646;51.910;7.724;2023-03-01T11:29:46;102169.13;;;4.80;56.25
39265;BME280;42646;51.910;7.724;2023-03-01T11:32:17;102169.59;;;4.90;55.12
39265;BME280;42646;51.910;7.724;2023-03-01T11:34:49;102164.59;;;4.83;55.80
39265;BME280;42646;51.910;7.724;2023-03-01T11:37:30;102159.13;;;4.88;56.75
39265;BME280;42646;51.910;7.724;2023-03-01T11:40:10;102158.94;;;4.93;56.59
39265;BME280;42646;51.910;7.724;2023-03-01T11:42:48;102158.81;;;4.96;56.60
39265;BME280;42646;51.910;7.724;2023-03-01T11:45:22;102158.47;;;5.03;56.30
39265;BME280;42646;51.910;7.724;2023-03-01T11:47:59;102154.94;;;5.04;55.29
39265;BME280;42646;51.910;7.724;2023-03-01T11:50:35;102147.13;;;5.01;55.83
39265;BME280;42646;51.910;7.724;2023-03-01T11:53:42;102156.44;;;5.10;55.73
39265;BME280;42646;51.910;7.724;2023-03-01T11:56:21;102154.72;;;5.09;55.16
39265;BME280;42646;51.910;7.724;2023-03-01T11:59:18;102148.47;;;5.12;54.92
39265;BME280;42646;51.910;7.724;2023-03-01T12:01:59;102150.94;;;5.15;54.30
39265;BME280;42646;51.910;7.724;2023-03-01T12:04:54;102142.09;;;5.16;54.43
39265;BME280;42646;51.910;7.724;2023-03-01T12:07:36;102138.22;;;5.04;54.58
39265;BME280;42646;51.910;7.724;2023-03-01T12:10:19;102144.41;;;5.03;55.07
39265;BME280;42646;51.910;7.724;2023-03-01T12:13:08;102140.94;;;5.02;54.29
39265;BME280;42646;51.910;7.724;2023-03-01T12:16:03;102133.88;;;5.03;54.74
39265;BME280;42646;51.910;7.724;2023-03-01T12:18:48;102130.38;;;5.02;54.76
39265;BME280;42646;51.910;7.724;2023-03-01T12:21:33;102125.66;;;5.11;54.10
39265;BME280;42646;51.910;7.724;2023-03-01T12:24:29;102111.19;;;5.19;53.90
39265;BME280;42646;51.910;7.724;2023-03-01T12:27:09;102114.94;;;5.14;54.00
39265;BME280;42646;51.910;7.724;2023-03-01T12:30:25;102101.75;;;5.14;53.63
39265;BME280;42646;51.910;7.724;2023-03-01T12:33:10;102109.47;;;5.18;53.62
39265;BME280;42646;51.910;7.724;2023-03-01T12:38:49;102097.78;;;5.24;54.25
39265;BME280;42646;51.910;7.724;2023-03-01T12:41:39;102094.97;;;5.28;54.61
39265;BME280;42646;51.910;7.724;2023-03-01T12:44:12;102094.09;;;5.28;54.67
39265;BME280;42646;51.910;7.724;2023-03-01T12:46:55;102091.47;;;5.28;54.94
39265;BME280;42646;51.910;7.724;2023-03-01T12:49:31;102085.31;;;5.27;54.58
39265;BME280;42646;51.910;7.724;2023-03-01T12:52:09;102075.34;;;5.34;55.07
39265;BME280;42646;51.910;7.724;2023-03-01T12:54:39;102071.72;;;5.36;54.63
39265;BME280;42646;51.910;7.724;2023-03-01T12:57:17;102064.84;;;5.32;54.50
39265;BME280;42646;51.910;7.724;2023-03-01T13:00:02;102060.22;;;5.38;54.14
39265;BME280;42646;51.910;7.724;2023-03-01T13:02:40;102049.16;;;5.48;54.65
39265;BME280;42646;51.910;7.724;2023-03-01T13:05:26;102058.38;;;5.40;54.77
39265;BME280;42646;51.910;7.724;2023-03-01T13:08:05;102053.44;;;5.32;54.58
39265;BME280;42646;51.910;7.724;2023-03-01T13:10:41;102045.75;;;5.46;54.08
39265;BME280;42646;51.910;7.724;2023-03-01T13:13:14;102045.97;;;5.42;53.34
39265;BME280;42646;51.910;7.724;2023-03-01T13:15:45;102049.81;;;5.53;52.09
39265;BME280;42646;51.910;7.724;2023-03-01T13:18:31;102042.97;;;5.49;52.02
39265;BME280;42646;51.910;7.724;2023-03-01T13:21:02;102033.06;;;5.54;51.99
39265;BME280;42646;51.910;7.724;2023-03-01T13:23:34;102035.31;;;5.62;51.98